Time;durP1;ratioP1;P1;durP2;ratioP2;P2;SDS_P1;SDS_P2;PMS_P1;PMS_P2;Temp;Humidity;BMP_temperature;BMP_pressure;BME280_temperature;BME280_humidity;BME280_pressure;Samples;Min_cycle;Max_cycle;Signal;HPM_P1;HPM_P2
2023/05/20 00:00:24;;;;;;;15.03;8.90;;;;;;;12.61;93.25;95145.16;4996527;28;20181;-80
2023/05/20 00:02:49;;;;;;;17.93;9.03;;;;;;;12.66;93.23;95146.09;5001925;28;20251;-80
2023/05/20 00:05:16;;;;;;;14.90;8.57;;;;;;;12.64;93.20;95144.69;5003762;28;20679;-81
2023/05/20 00:07:41;;;;;;;15.93;9.33;;;;;;;12.46;92.58;95121.69;5000947;28;20173;-81
2023/05/20 00:10:07;;;;;;;18.90;9.57;;;;;;;12.53;92.57;95145.41;4993127;28;20207;-81
2023/05/20 00:12:33;;;;;;;16.57;9.27;;;;;;;12.32;93.39;95118.34;4991836;28;20181;-80
2023/05/20 00:14:59;;;;;;;16.23;9.33;;;;;;;12.54;92.85;95144.41;4997712;28;20611;-81
2023/05/20 00:17:27;;;;;;;14.13;8.87;;;;;;;12.22;93.03;95093.44;5003881;28;20283;-80
2023/05/20 00:19:52;;;;;;;18.83;9.17;;;;;;;12.35;92.70;95120.56;5004051;28;20200;-81
2023/05/20 00:22:18;;;;;;;16.37;10.00;;;;;;;12.48;92.48;95146.84;4999711;28;20209;-81
2023/05/20 00:24:44;;;;;;;20.63;10.20;;;;;;;12.36;92.77;95124.84;5000958;28;20184;-81
2023/05/20 00:27:09;;;;;;;20.13;10.17;;;;;;;12.31;92.76;95134.41;5007915;28;20199;-81
2023/05/20 00:29:34;;;;;;;16.83;8.50;;;;;;;12.19;93.29;95121.09;5011693;28;20171;-81
2023/05/20 00:32:00;;;;;;;18.83;11.03;;;;;;;12.11;93.52;95123.19;5011320;28;20542;-81
2023/05/20 00:34:25;;;;;;;19.20;10.23;;;;;;;11.82;94.81;95120.09;5009368;28;20234;-81
2023/05/20 00:36:51;;;;;;;22.70;10.60;;;;;;;11.94;94.90;95134.22;5000315;28;20204;-81
2023/05/20 00:39:16;;;;;;;20.63;11.40;;;;;;;11.92;95.43;95117.81;5000459;28;20427;-81
2023/05/20 00:41:42;;;;;;;19.33;11.93;;;;;;;11.47;95.68;95081.94;4999443;28;20447;-81
2023/05/20 00:44:07;;;;;;;18.03;10.37;;;;;;;11.84;96.19;95119.91;4996618;28;20655;-81
2023/05/20 00:46:34;;;;;;;18.80;10.80;;;;;;;11.98;95.64;95124.06;4993799;28;20181;-81
2023/05/20 00:49:00;;;;;;;20.30;10.97;;;;;;;12.01;95.32;95124.47;4999701;28;20176;-81
2023/05/20 00:51:25;;;;;;;18.63;9.70;;;;;;;12.00;95.13;95122.84;5004354;28;20716;-81
2023/05/20 00:53:51;;;;;;;16.73;10.00;;;;;;;11.98;95.00;95105.59;5003332;28;20259;-80
2023/05/20 00:56:17;;;;;;;24.43;11.57;;;;;;;11.98;94.86;95100.31;5004842;28;20464;-81
2023/05/20 00:58:43;;;;;;;16.87;10.20;;;;;;;12.04;94.80;95116.09;5008429;28;20172;-81
2023/05/20 01:01:08;;;;;;;16.33;9.30;;;;;;;12.11;94.12;95123.19;4996225;28;20554;-81
2023/05/20 01:03:34;;;;;;;23.57;10.97;;;;;;;12.12;93.87;95119.50;4999986;28;20185;-81
2023/05/20 01:05:59;;;;;;;17.17;11.00;;;;;;;12.09;93.84;95104.94;5006029;28;20184;-80
2023/05/20 01:08:27;;;;;;;19.15;11.13;;;;;;;11.97;93.44;95088.16;5009428;28;20429;-80
2023/05/20 01:11:18;;;;;;;19.00;12.30;;;;;;;11.94;94.41;95112.31;4997807;28;20478;-79
2023/05/20 01:13:48;;;;;;;26.37;11.33;;;;;;;11.94;94.40;95112.31;5000445;28;20173;-80
2023/05/20 01:16:17;;;;;;;18.57;9.70;;;;;;;11.98;94.53;95110.88;4999997;28;20217;-80
2023/05/20 01:18:42;;;;;;;17.63;10.43;;;;;;;11.87;94.73;95090.44;4995914;28;20180;-80
2023/05/20 01:21:10;;;;;;;19.40;10.07;;;;;;;11.86;93.73;95088.81;4996080;28;20177;-80
2023/05/20 01:23:40;;;;;;;17.83;10.63;;;;;;;12.01;94.05;95119.19;4996171;28;20255;-80
2023/05/20 01:26:06;;;;;;;18.20;10.20;;;;;;;11.84;93.74;95091.69;5003631;28;20188;-80
2023/05/20 01:28:38;;;;;;;15.63;9.87;;;;;;;11.89;93.49;95102.41;5001106;28;20177;-79
2023/05/20 01:31:06;;;;;;;15.87;9.97;;;;;;;11.94;93.76;95120.22;5003756;28;20172;-80
2023/05/20 01:33:35;;;;;;;22.37;9.43;;;;;;;11.87;93.89;95109.72;5012076;28;20207;-80
2023/05/20 01:36:01;;;;;;;16.20;9.23;;;;;;;11.90;93.89;95111.94;5015155;28;20182;-80
2023/05/20 01:38:27;;;;;;;14.37;9.17;;;;;;;11.77;93.90;95096.19;5015413;28;20287;-79
2023/05/20 01:40:53;;;;;;;17.33;10.38;;;;;;;11.65;94.65;95109.22;5003523;28;20439;-79
2023/05/20 01:43:20;;;;;;;14.00;7.93;;;;;;;11.61;95.23;95107.19;5005991;28;20694;-79
2023/05/20 01:45:45;;;;;;;13.57;8.37;;;;;;;11.65;95.68;95106.56;5001128;28;20203;-79
2023/05/20 01:48:11;;;;;;;14.07;8.80;;;;;;;11.57;94.79;95083.09;5006773;28;20208;-79
2023/05/20 01:50:37;;;;;;;14.57;7.53;;;;;;;11.72;94.63;95102.06;5002479;28;20555;-79
2023/05/20 01:53:03;;;;;;;13.88;8.50;;;;;;;11.79;94.40;95106.53;5010591;28;20415;-79
2023/05/20 01:55:28;;;;;;;14.23;7.63;;;;;;;11.77;94.10;95108.56;5012532;28;20187;-80
2023/05/20 01:57:54;;;;;;;14.60;8.80;;;;;;;11.75;94.00;95111.44;5008545;28;20222;-79
2023/05/20 02:00:19;;;;;;;14.40;8.27;;;;;;;11.70;94.19;95113.84;5009166;28;20180;-79
2023/05/20 02:02:45;;;;;;;15.33;7.40;;;;;;;11.68;94.06;95107.97;5002816;28;20199;-79
2023/05/20 02:05:10;;;;;;;13.57;8.13;;;;;;;11.64;94.60;95102.31;5001874;28;20263;-79
2023/05/20 02:07:36;;;;;;;14.53;7.93;;;;;;;11.64;94.32;95096.25;5002308;28;20177;-80
2023/05/20 02:10:01;;;;;;;12.23;8.00;;;;;;;11.75;93.85;95102.72;5006313;28;20165;-79
2023/05/20 02:12:26;;;;;;;15.73;8.33;;;;;;;11.71;93.89;95105.72;5006433;28;20219;-79
2023/05/20 02:14:52;;;;;;;14.33;7.83;;;;;;;11.60;94.17;95093.19;5006077;28;20184;-80
2023/05/20 02:17:18;;;;;;;15.00;7.67;;;;;;;11.56;94.45;95089.38;5001467;28;20272;-79
2023/05/20 02:19:44;;;;;;;12.13;7.20;;;;;;;11.43;94.82;95081.53;5002849;28;20192;-79
2023/05/20 02:22:10;;;;;;;14.07;7.50;;;;;;;11.60;94.67;95105.56;4981673;28;20185;-80
2023/05/20 02:24:36;;;;;;;17.60;7.57;;;;;;;11.49;94.42;95093.88;5006480;28;20223;-79
2023/05/20 02:27:03;;;;;;;12.30;6.80;;;;;;;11.50;94.82;95090.22;5002838;28;20192;-80
2023/05/20 02:29:29;;;;;;;14.90;8.93;;;;;;;11.39;95.97;95090.88;4998545;28;20910;-80
2023/05/20 02:31:54;;;;;;;13.53;7.87;;;;;;;11.29;95.44;95070.25;5005730;28;20177;-80
2023/05/20 02:34:20;;;;;;;12.70;7.03;;;;;;;11.44;94.67;95095.50;5005787;28;20259;-80
2023/05/20 02:36:46;;;;;;;13.90;7.33;;;;;;;11.31;95.33;95075.31;5005997;28;20176;-79
2023/05/20 02:39:11;;;;;;;13.00;7.00;;;;;;;11.43;94.62;95092.06;5001172;28;20185;-79
2023/05/20 02:41:37;;;;;;;11.23;7.10;;;;;;;11.50;94.04;95092.84;5002466;28;20579;-80
2023/05/20 02:44:02;;;;;;;11.03;7.03;;;;;;;11.37;93.89;95079.75;5002504;28;20188;-79
2023/05/20 02:46:28;;;;;;;11.40;6.37;;;;;;;11.30;93.37;95071.06;5005423;28;20596;-79
2023/05/20 02:48:53;;;;;;;13.43;6.77;;;;;;;11.38;94.12;95094.53;5005614;28;20210;-79
2023/05/20 02:51:18;;;;;;;10.17;6.10;;;;;;;11.39;94.09;95088.25;4996139;28;20184;-79
2023/05/20 02:53:44;;;;;;;13.37;6.53;;;;;;;11.28;94.20;95075.72;5002242;28;20669;-79
2023/05/20 02:56:10;;;;;;;13.90;7.37;;;;;;;11.15;94.69;95055.53;5001248;28;20188;-79
2023/05/20 02:58:36;;;;;;;13.77;6.60;;;;;;;11.29;94.27;95083.44;5010396;28;20165;-80
2023/05/20 03:01:02;;;;;;;10.93;6.33;;;;;;;11.20;94.28;95066.22;5006737;28;20218;-79
2023/05/20 03:03:27;;;;;;;18.10;6.47;;;;;;;11.26;94.21;95091.75;5004171;28;20286;-79
2023/05/20 03:05:53;;;;;;;12.30;7.17;;;;;;;11.14;94.19;95080.25;5002415;28;20289;-79
2023/05/20 03:08:20;;;;;;;13.10;6.57;;;;;;;11.21;94.17;95104.75;5002350;28;20185;-79
2023/05/20 03:10:45;;;;;;;11.47;6.87;;;;;;;11.13;94.54;95088.34;5005292;28;20165;-80
2023/05/20 03:13:11;;;;;;;11.33;6.80;;;;;;;11.21;94.79;95098.66;5005157;28;20561;-80
2023/05/20 03:15:37;;;;;;;11.00;6.73;;;;;;;11.24;94.79;95108.81;5012100;28;20303;-80
2023/05/20 03:18:04;;;;;;;12.57;6.17;;;;;;;11.10;94.40;95094.84;5005729;28;20592;-80
2023/05/20 03:20:31;;;;;;;13.17;6.23;;;;;;;11.23;94.29;95117.72;5004807;28;20176;-80
2023/05/20 03:22:57;;;;;;;12.07;6.70;;;;;;;11.26;94.57;95119.91;5005088;28;20204;-80
2023/05/20 03:25:25;;;;;;;12.00;6.70;;;;;;;11.30;94.73;95123.78;5005073;28;20173;-79
2023/05/20 03:27:50;;;;;;;13.10;6.93;;;;;;;11.31;94.84;95123.56;4996511;28;20192;-79
2023/05/20 03:30:16;;;;;;;10.03;6.47;;;;;;;11.41;94.73;95115.22;5004933;28;20180;-79
2023/05/20 03:32:41;;;;;;;22.50;10.70;;;;;;;11.43;94.42;95113.16;4996807;28;20191;-79
2023/05/20 03:35:08;;;;;;;21.27;12.17;;;;;;;11.33;94.40;95100.41;5001579;28;20181;-79
2023/05/20 03:37:34;;;;;;;20.53;11.07;;;;;;;11.32;94.80;95098.03;5002883;28;20648;-79
2023/05/20 03:39:59;;;;;;;15.77;11.00;;;;;;;11.39;94.78;95098.78;5001246;28;20188;-79
2023/05/20 03:42:25;;;;;;;19.63;11.53;;;;;;;11.59;95.17;95117.94;5001326;28;20224;-79
2023/05/20 03:44:50;;;;;;;20.80;10.33;;;;;;;11.65;95.14;95109.22;4997793;28;20189;-80
2023/05/20 03:47:16;;;;;;;21.10;10.63;;;;;;;11.87;94.71;95128.19;5003981;28;20176;-79
2023/05/20 03:49:41;;;;;;;24.60;13.10;;;;;;;12.00;93.64;95130.75;5001363;28;20593;-79
2023/05/20 03:52:06;;;;;;;17.63;11.10;;;;;;;11.91;93.33;95100.38;5006361;28;20173;-79
2023/05/20 03:54:34;;;;;;;20.23;11.37;;;;;;;12.09;93.01;95132.13;5002303;28;20188;-80
2023/05/20 03:56:59;;;;;;;22.47;11.47;;;;;;;12.08;93.34;95116.50;4995652;28;20219;-80
2023/05/20 03:59:26;;;;;;;20.87;11.63;;;;;;;12.02;92.78;95099.66;5001545;28;20180;-81
2023/05/20 04:01:51;;;;;;;18.13;10.57;;;;;;;12.11;93.36;95087.03;4992880;28;20571;-79
2023/05/20 04:04:17;;;;;;;21.53;11.40;;;;;;;12.52;93.01;95131.41;4993508;28;20185;-80
2023/05/20 04:06:42;;;;;;;21.07;13.13;;;;;;;12.79;92.57;95143.38;5004278;28;20176;-80
2023/05/20 04:09:08;;;;;;;21.77;12.23;;;;;;;12.95;92.11;95146.47;5001183;28;20172;-81
2023/05/20 04:11:33;;;;;;;22.17;14.13;;;;;;;13.13;91.26;95146.50;5001934;28;20265;-81
2023/05/20 04:13:59;;;;;;;22.93;12.23;;;;;;;13.29;90.34;95151.22;4998131;28;20176;-80
2023/05/20 04:16:24;;;;;;;23.30;12.93;;;;;;;13.31;90.64;95130.66;5004799;28;20277;-80
2023/05/20 04:18:51;;;;;;;20.70;12.70;;;;;;;13.67;90.35;95158.91;5000245;28;20196;-80
2023/05/20 04:21:17;;;;;;;23.10;12.43;;;;;;;13.57;89.33;95108.41;5002181;28;20185;-82
2023/05/20 04:23:43;;;;;;;16.27;10.50;;;;;;;13.98;87.98;95148.16;5002064;28;20248;-81
2023/05/20 04:26:08;;;;;;;15.67;10.90;;;;;;;13.91;87.82;95098.97;4999329;28;20193;-82
2023/05/20 04:28:36;;;;;;;18.00;10.50;;;;;;;14.48;86.92;95150.50;4992974;28;20503;-82
2023/05/20 04:31:05;;;;;;;16.37;10.40;;;;;;;14.73;85.84;95153.75;4995819;28;20264;-82
2023/05/20 04:33:31;;;;;;;24.97;10.17;;;;;;;14.85;85.51;95143.19;4998222;28;20188;-82
2023/05/20 04:35:57;;;;;;;18.38;9.88;;;;;;;15.04;85.04;95110.22;5003831;28;20214;-82
2023/05/20 04:38:29;;;;;;;15.63;9.13;;;;;;;15.73;83.84;95155.47;5005016;28;20188;-82
2023/05/20 04:40:59;;;;;;;17.80;11.15;;;;;;;16.15;82.15;95167.44;4997244;28;20165;-82
2023/05/20 04:43:25;;;;;;;15.65;11.43;;;;;;;16.56;79.73;95168.16;5009232;28;20279;-82
2023/05/20 04:45:54;;;;;;;21.27;13.63;;;;;;;16.90;77.93;95176.97;5016004;28;20196;-83
2023/05/20 04:48:21;;;;;;;19.85;10.27;;;;;;;17.10;77.44;95149.91;5008333;28;20180;-81
2023/05/20 04:50:47;;;;;;;20.35;11.00;;;;;;;17.56;75.04;95169.94;5012931;28;20188;-81
2023/05/20 04:53:13;;;;;;;16.67;10.40;;;;;;;17.92;73.27;95173.91;5007476;28;20220;-81
2023/05/20 04:55:38;;;;;;;21.88;12.65;;;;;;;18.28;71.58;95183.91;5007314;28;20651;-81
2023/05/20 04:58:04;;;;;;;17.92;11.20;;;;;;;18.59;70.31;95176.25;4999379;28;20208;-81
2023/05/20 05:00:30;;;;;;;23.48;12.50;;;;;;;18.85;69.34;95160.19;5003865;28;20184;-83
2023/05/20 05:02:55;;;;;;;16.08;9.20;;;;;;;19.26;68.50;95173.06;5003940;28;21005;-84
2023/05/20 05:05:20;;;;;;;17.58;9.25;;;;;;;19.50;67.88;95155.63;5004336;28;20263;-84
2023/05/20 05:07:46;;;;;;;14.07;8.65;;;;;;;19.98;66.49;95151.81;5006559;28;20191;-84
2023/05/20 05:10:11;;;;;;;19.20;11.15;;;;;;;20.54;63.98;95165.38;5006009;28;20256;-83
2023/05/20 05:12:37;;;;;;;16.17;9.38;;;;;;;21.04;63.13;95169.94;4980941;28;20204;-84
2023/05/20 05:15:02;;;;;;;16.58;10.05;;;;;;;21.48;61.79;95169.41;4975569;28;20640;-83
2023/05/20 05:17:28;;;;;;;19.35;10.88;;;;;;;21.71;59.59;95144.69;4975205;28;20240;-83
2023/05/20 05:19:53;;;;;;;18.17;10.05;;;;;;;22.18;58.25;95177.25;4976500;28;20622;-83
2023/05/20 05:22:18;;;;;;;13.45;7.93;;;;;;;22.54;57.66;95180.56;4976381;28;20209;-83
2023/05/20 05:24:44;;;;;;;20.58;12.25;;;;;;;22.71;55.64;95164.06;5012255;28;20180;-83
2023/05/20 05:27:09;;;;;;;13.95;9.25;;;;;;;22.95;56.51;95146.19;5006959;28;20169;-84
2023/05/20 05:29:35;;;;;;;19.48;9.27;;;;;;;23.65;53.80;95160.06;5005577;28;20667;-83
2023/05/20 05:32:00;;;;;;;18.92;11.02;;;;;;;23.88;53.15;95152.28;4995696;28;20236;-83
2023/05/20 05:34:26;;;;;;;19.48;12.50;;;;;;;24.18;52.87;95145.75;4995313;28;20271;-83
2023/05/20 05:36:51;;;;;;;21.23;8.63;;;;;;;24.75;52.21;95163.53;5005349;28;20687;-83
2023/05/20 05:39:16;;;;;;;16.10;8.18;;;;;;;25.08;50.94;95159.81;5000947;28;20177;-83
2023/05/20 05:41:42;;;;;;;11.50;7.53;;;;;;;25.26;49.06;95166.25;5002363;28;20199;-83
2023/05/20 05:44:07;;;;;;;12.13;6.53;;;;;;;24.64;49.33;95140.56;5003657;28;20169;-83
2023/05/20 05:46:33;;;;;;;11.32;7.60;;;;;;;24.86;51.09;95150.72;5003539;28;20209;-84
2023/05/20 05:48:58;;;;;;;12.63;7.65;;;;;;;25.22;49.80;95154.50;5005556;28;20723;-84
2023/05/20 05:51:26;;;;;;;9.55;6.57;;;;;;;25.32;47.49;95161.59;5006600;28;20171;-83
2023/05/20 05:53:52;;;;;;;12.20;7.15;;;;;;;25.27;48.72;95123.94;5013557;28;20176;-84
2023/05/20 05:56:17;;;;;;;13.30;7.72;;;;;;;25.59;47.68;95161.69;5014957;28;20283;-82
2023/05/20 05:58:43;;;;;;;15.13;10.32;;;;;;;25.40;48.11;95152.84;5014735;28;20215;-81
2023/05/20 06:01:08;;;;;;;13.45;7.65;;;;;;;25.13;48.03;95142.78;4998079;28;20181;-82
2023/05/20 06:03:33;;;;;;;10.88;7.30;;;;;;;24.89;49.06;95152.84;5001040;28;20196;-82
2023/05/20 06:05:59;;;;;;;9.82;7.35;;;;;;;24.94;51.61;95121.25;5003623;28;20636;-84
2023/05/20 06:08:25;;;;;;;12.48;7.68;;;;;;;24.82;48.57;95158.63;5011308;28;20211;-83
2023/05/20 06:10:51;;;;;;;18.00;7.72;;;;;;;24.66;49.31;95144.56;5001635;28;20161;-83
2023/05/20 06:13:17;;;;;;;14.73;9.27;;;;;;;24.82;49.76;95134.38;5004505;28;21069;-83
2023/05/20 06:15:44;;;;;;;10.23;7.65;;;;;;;24.81;49.07;95143.53;5002727;28;20229;-79
2023/05/20 06:18:11;;;;;;;11.85;6.60;;;;;;;24.76;50.02;95143.59;4994800;28;20720;-80
2023/05/20 06:20:36;;;;;;;11.43;7.32;;;;;;;24.57;48.15;95150.88;5003039;28;20189;-80
2023/05/20 06:23:02;;;;;;;7.68;6.30;;;;;;;24.20;48.96;95144.38;5003964;28;20320;-80
2023/05/20 06:25:27;;;;;;;9.43;6.30;;;;;;;24.29;49.68;95145.38;5011550;28;20675;-80
2023/05/20 06:27:52;;;;;;;13.60;6.40;;;;;;;24.39;50.15;95139.81;5002760;28;20256;-80
2023/05/20 06:30:18;;;;;;;12.10;7.10;;;;;;;24.45;49.46;95121.72;5002800;28;20188;-81
2023/05/20 06:32:44;;;;;;;10.30;6.78;;;;;;;24.48;48.79;95131.09;5006000;28;20275;-81
2023/05/20 06:35:10;;;;;;;11.65;5.82;;;;;;;24.57;49.62;95134.72;5007346;28;20185;-81
2023/05/20 06:37:35;;;;;;;8.18;6.18;;;;;;;24.17;49.23;95101.91;5002332;28;20790;-80
2023/05/20 06:40:01;;;;;;;8.38;5.65;;;;;;;24.43;49.92;95118.50;5002460;28;20565;-81
2023/05/20 06:42:26;;;;;;;10.52;6.43;;;;;;;24.62;48.84;95123.91;5002363;28;20348;-81
2023/05/20 06:44:52;;;;;;;11.02;6.22;;;;;;;24.55;48.07;95110.00;4996989;28;20255;-81
2023/05/20 06:47:17;;;;;;;11.02;5.88;;;;;;;24.68;50.13;95099.28;4994544;28;20162;-80
2023/05/20 06:49:43;;;;;;;10.45;5.63;;;;;;;24.89;46.48;95115.94;4992900;28;20648;-80
2023/05/20 06:52:09;;;;;;;9.23;4.82;;;;;;;24.88;45.22;95110.84;4998278;28;20195;-80
2023/05/20 06:54:38;;;;;;;10.10;5.18;;;;;;;24.70;46.83;95117.84;5002441;28;20209;-80
2023/05/20 06:57:05;;;;;;;9.70;5.65;;;;;;;24.64;46.89;95108.25;4999175;28;20204;-80
2023/05/20 06:59:31;;;;;;;10.38;5.47;;;;;;;24.65;45.83;95115.25;5004243;28;20260;-81
2023/05/20 07:01:56;;;;;;;14.30;5.82;;;;;;;24.25;47.72;95103.97;5003987;28;20647;-80
2023/05/20 07:04:21;;;;;;;8.32;5.35;;;;;;;24.02;47.85;95102.91;5009302;28;20173;-80
2023/05/20 07:06:47;;;;;;;7.32;4.63;;;;;;;24.49;49.38;95125.41;5009620;28;20215;-80
2023/05/20 07:09:12;;;;;;;7.78;5.03;;;;;;;24.90;46.78;95117.53;5012065;28;20632;-80
2023/05/20 07:11:38;;;;;;;6.85;4.93;;;;;;;24.54;46.12;95113.78;5003781;28;20246;-80
2023/05/20 07:14:04;;;;;;;7.72;5.18;;;;;;;24.29;48.42;95105.00;5004882;28;20176;-80
2023/05/20 07:16:31;;;;;;;8.93;4.80;;;;;;;24.53;45.83;95112.19;5006296;28;20232;-80
2023/05/20 07:18:56;;;;;;;5.55;4.45;;;;;;;24.46;46.04;95112.56;5011506;28;20666;-80
2023/05/20 07:21:22;;;;;;;5.68;4.55;;;;;;;24.18;45.58;95079.28;5001222;28;20185;-85
2023/05/20 07:23:47;;;;;;;6.03;4.10;;;;;;;24.57;46.97;95114.00;5002549;28;20283;-83
2023/05/20 07:26:13;;;;;;;7.50;4.35;;;;;;;24.28;46.29;95068.41;5000738;28;20173;-84
2023/05/20 07:28:38;;;;;;;8.75;5.00;;;;;;;24.42;45.15;95076.53;4993771;28;20157;-85
2023/05/20 07:31:04;;;;;;;5.72;4.60;;;;;;;24.09;45.46;95105.22;4994939;28;20189;-86
2023/05/20 07:33:29;;;;;;;8.02;4.45;;;;;;;23.85;46.91;95085.66;4995609;28;20168;-81
2023/05/20 07:35:55;;;;;;;4.70;3.92;;;;;;;24.06;46.77;95103.91;5000290;28;20621;-82
2023/05/20 07:38:20;;;;;;;7.20;4.50;;;;;;;24.41;46.59;95089.19;5004910;28;20596;-82
2023/05/20 07:40:46;;;;;;;5.80;4.55;;;;;;;24.43;45.01;95095.09;5005325;28;20855;-81
2023/05/20 07:43:11;;;;;;;5.53;4.25;;;;;;;24.26;46.53;95105.56;4996767;28;20674;-81
2023/05/20 07:45:37;;;;;;;10.75;4.57;;;;;;;24.43;45.08;95100.47;4998005;28;20200;-81
2023/05/20 07:48:03;;;;;;;7.53;4.63;;;;;;;24.89;48.01;95107.06;4997685;28;20666;-82
2023/05/20 07:50:29;;;;;;;6.63;4.28;;;;;;;25.27;43.42;95110.47;4992041;28;20200;-80
2023/05/20 07:52:54;;;;;;;6.60;4.07;;;;;;;25.08;44.00;95108.63;4994977;28;20208;-81
2023/05/20 07:55:20;;;;;;;6.35;4.03;;;;;;;25.06;43.53;95088.47;5008529;28;20168;-82
2023/05/20 07:57:45;;;;;;;8.57;4.15;;;;;;;25.48;45.10;95084.75;4996934;28;20256;-82
2023/05/20 08:00:11;;;;;;;7.57;4.57;;;;;;;25.55;43.11;95091.34;5004908;28;20231;-89
2023/05/20 08:02:37;;;;;;;7.25;4.68;;;;;;;25.40;43.12;95069.25;5001554;28;20268;-87
2023/05/20 08:05:03;;;;;;;5.57;4.50;;;;;;;25.51;41.93;95060.66;5000476;28;20680;-84
2023/05/20 08:07:29;;;;;;;8.40;4.22;;;;;;;25.61;42.76;95102.84;4998158;28;20627;-84
2023/05/20 08:09:55;;;;;;;7.75;4.53;;;;;;;25.05;43.20;95073.41;5009239;28;20192;-86
2023/05/20 08:12:21;;;;;;;5.97;4.53;;;;;;;24.82;43.06;95091.28;5001593;28;20246;-84
2023/05/20 08:14:46;;;;;;;6.30;4.78;;;;;;;24.65;43.68;95094.47;5005873;28;20192;-87
2023/05/20 08:17:12;;;;;;;6.07;4.63;;;;;;;24.63;45.26;95052.81;5012442;28;20232;-85
2023/05/20 08:19:37;;;;;;;10.63;5.03;;;;;;;24.95;44.91;95087.03;4997062;28;20248;-87
2023/05/20 08:22:02;;;;;;;8.68;4.80;;;;;;;25.06;44.33;95083.09;5006728;28;20287;-88
2023/05/20 08:24:28;;;;;;;7.18;4.50;;;;;;;25.09;44.19;95061.72;5000974;28;20223;-87
2023/05/20 08:26:53;;;;;;;11.90;4.85;;;;;;;24.94;44.43;95094.31;4993642;28;20271;-87
2023/05/20 08:29:19;;;;;;;6.13;4.30;;;;;;;24.63;44.82;95083.22;4997820;28;20212;-84
2023/05/20 08:31:44;;;;;;;8.73;4.35;;;;;;;24.61;46.19;95082.72;5001741;28;20255;-83
2023/05/20 08:34:10;;;;;;;11.00;4.80;;;;;;;24.78;45.00;95092.94;4997995;28;20176;-82
2023/05/20 08:36:35;;;;;;;8.65;4.53;;;;;;;24.19;44.57;95048.59;5003602;28;20173;-82
2023/05/20 08:39:01;;;;;;;7.15;4.60;;;;;;;24.43;46.66;95092.41;4998553;28;20267;-82
2023/05/20 08:41:26;;;;;;;6.20;5.20;;;;;;;24.54;45.38;95081.47;5003340;28;20196;-82
2023/05/20 08:43:52;;;;;;;12.15;4.60;;;;;;;24.39;46.11;95077.91;5008003;28;20201;-80
2023/05/20 08:46:20;;;;;;;7.47;4.28;;;;;;;24.11;46.51;95080.72;5011841;28;20303;-81
2023/05/20 08:48:46;;;;;;;7.03;4.72;;;;;;;24.08;46.89;95100.94;4996202;28;20192;-82
2023/05/20 08:51:14;;;;;;;7.25;4.35;;;;;;;23.65;47.75;95092.88;4991351;28;20173;-81
2023/05/20 08:53:40;;;;;;;6.68;4.82;;;;;;;23.42;48.58;95080.19;4992583;28;20271;-80
2023/05/20 08:56:07;;;;;;;6.85;4.97;;;;;;;23.42;48.81;95090.16;4992548;28;20637;-80
2023/05/20 08:58:32;;;;;;;12.25;6.07;;;;;;;23.29;49.17;95083.56;4992478;28;20185;-82
2023/05/20 09:00:58;;;;;;;7.93;4.60;;;;;;;23.20;49.22;95059.19;4992853;28;20165;-79
2023/05/20 09:03:24;;;;;;;7.20;4.72;;;;;;;23.19;49.68;95064.84;4992430;28;20193;-82
2023/05/20 09:05:50;;;;;;;8.98;4.65;;;;;;;23.30;50.45;95055.59;4999863;28;20246;-89
2023/05/20 09:08:16;;;;;;;5.05;4.55;;;;;;;23.48;50.16;95068.31;4993651;28;20189;-81
2023/05/20 09:10:42;;;;;;;6.43;4.43;;;;;;;23.28;50.53;95044.34;4993622;28;20580;-83
2023/05/20 09:13:09;;;;;;;6.00;4.43;;;;;;;23.08;50.28;95064.19;5001199;28;20228;-83
2023/05/20 09:15:47;;;;;;;7.60;4.45;;;;;;;22.79;54.84;95053.44;4999347;28;20250;-83
2023/05/20 09:18:13;;;;;;;8.93;4.43;;;;;;;22.38;51.55;95036.84;5238319;22;20627;-84
2023/05/20 09:20:39;;;;;;;10.88;4.65;;;;;;;22.33;51.96;95046.78;4998319;28;20185;-83
2023/05/20 09:23:07;;;;;;;7.72;4.47;;;;;;;22.28;52.70;95062.94;4996535;28;20279;-84
2023/05/20 09:25:34;;;;;;;6.20;4.03;;;;;;;21.82;53.03;95033.66;4995954;28;20257;-83
2023/05/20 09:27:59;;;;;;;10.15;4.65;;;;;;;21.82;53.61;95049.75;4986917;28;20191;-84
2023/05/20 09:30:25;;;;;;;7.88;4.45;;;;;;;21.60;53.34;95025.22;4976843;28;20241;-83
2023/05/20 09:32:58;;;;;;;7.13;4.70;;;;;;;21.69;54.13;95029.72;4997373;28;20189;-84
2023/05/20 09:35:25;;;;;;;7.35;4.47;;;;;;;21.89;52.22;95050.25;5006027;28;20678;-84
2023/05/20 09:37:56;;;;;;;7.25;4.53;;;;;;;21.66;52.72;95034.81;5001294;28;20570;-82
2023/05/20 09:40:29;;;;;;;6.88;4.55;;;;;;;21.71;53.76;95029.44;5000772;28;20251;-83
2023/05/20 09:43:05;;;;;;;6.65;4.28;;;;;;;21.94;53.76;95052.13;5005084;28;20569;-84
2023/05/20 09:45:30;;;;;;;6.38;4.40;;;;;;;22.14;56.94;95038.63;5009793;28;20173;-83
2023/05/20 09:47:56;;;;;;;5.13;3.75;;;;;;;22.11;51.68;95049.91;5002118;28;20173;-86
2023/05/20 09:50:23;;;;;;;5.55;4.28;;;;;;;21.96;51.84;94999.03;5002393;28;20745;-86
2023/05/20 09:52:53;;;;;;;7.38;4.22;;;;;;;22.27;52.15;95037.19;4994745;28;20204;-85
2023/05/20 09:55:20;;;;;;;5.20;4.05;;;;;;;22.09;52.67;95017.19;4999039;28;20266;-85
2023/05/20 09:57:46;;;;;;;10.43;4.68;;;;;;;22.13;52.09;95002.16;5000314;28;20176;-83
2023/05/20 10:00:14;;;;;;;9.00;4.78;;;;;;;22.15;52.33;95032.97;5007193;28;20308;-83
2023/05/20 10:02:47;;;;;;;5.13;4.22;;;;;;;22.06;52.37;95004.31;4999370;28;20185;-83
2023/05/20 10:05:19;;;;;;;8.52;4.60;;;;;;;22.25;51.94;95018.69;5002939;28;20188;-81
2023/05/20 10:08:02;;;;;;;6.82;4.93;;;;;;;22.39;51.56;95016.16;5001590;28;20656;-82
2023/05/20 10:10:48;;;;;;;6.28;4.32;;;;;;;22.50;53.00;95012.31;4999490;28;20197;-83
2023/05/20 10:13:38;;;;;;;5.78;4.45;;;;;;;22.68;51.79;95003.56;4992208;28;20228;-82
2023/05/20 10:16:24;;;;;;;6.13;4.65;;;;;;;22.79;50.23;95015.03;4998467;28;20174;-82
2023/05/20 10:18:53;;;;;;;7.22;4.10;;;;;;;22.72;50.36;95003.81;5005142;28;20707;-83
2023/05/20 10:21:23;;;;;;;5.72;4.40;;;;;;;22.54;50.04;95003.44;5003848;28;20177;-82
2023/05/20 10:23:52;;;;;;;6.20;4.10;;;;;;;22.18;49.26;94965.34;5012572;28;20199;-81
2023/05/20 10:26:17;;;;;;;5.05;4.05;;;;;;;22.13;50.89;94969.97;5009810;28;20588;-84
2023/05/20 10:28:45;;;;;;;7.78;4.20;;;;;;;22.32;49.37;94983.47;4999153;28;20188;-80
2023/05/20 10:31:21;;;;;;;8.38;3.80;;;;;;;22.39;48.47;94992.84;4997604;28;20165;-83
2023/05/20 10:33:47;;;;;;;5.07;3.95;;;;;;;22.17;48.65;94993.25;5000422;28;20169;-86
2023/05/20 10:36:33;;;;;;;4.32;3.72;;;;;;;22.12;51.62;94987.13;4994804;28;20164;-89
2023/05/20 10:38:59;;;;;;;6.85;3.97;;;;;;;22.06;50.93;94966.78;4994853;28;20185;-83
2023/05/20 10:41:28;;;;;;;4.50;3.50;;;;;;;22.18;49.65;94969.91;4991567;28;20180;-81
2023/05/20 10:44:05;;;;;;;3.80;3.40;;;;;;;22.04;50.44;94959.03;5001438;28;20247;-89
2023/05/20 10:46:31;;;;;;;5.47;3.10;;;;;;;22.15;48.23;94963.22;4996750;28;20161;-84
2023/05/20 10:48:57;;;;;;;13.85;3.50;;;;;;;22.23;49.77;94972.53;5008817;28;20196;-80
2023/05/20 10:51:23;;;;;;;5.97;3.80;;;;;;;22.18;48.29;94970.72;5012730;28;20196;-88
2023/05/20 10:53:52;;;;;;;6.00;3.45;;;;;;;22.08;50.06;94952.03;5003411;28;20244;-81
2023/05/20 10:56:25;;;;;;;4.63;3.08;;;;;;;21.91;48.23;94940.88;5000477;28;21062;-90
2023/05/20 10:58:52;;;;;;;4.97;3.58;;;;;;;21.99;49.58;94969.78;5004725;28;20671;-85
2023/05/20 11:01:21;;;;;;;4.45;3.35;;;;;;;21.75;48.28;94907.22;5002492;28;20176;-84
2023/05/20 11:03:48;;;;;;;7.20;3.92;;;;;;;21.71;48.63;94906.94;4991364;28;20684;-83
2023/05/20 11:06:16;;;;;;;4.45;3.38;;;;;;;21.75;49.93;94909.88;4998009;28;20635;-86
2023/05/20 11:08:42;;;;;;;10.57;4.03;;;;;;;21.83;49.16;94946.81;5006062;28;20178;-83
2023/05/20 11:11:09;;;;;;;5.15;3.58;;;;;;;21.75;48.94;94942.84;5005690;28;20173;-84
2023/05/20 11:13:35;;;;;;;8.85;4.40;;;;;;;21.90;48.92;94947.28;4993491;28;20162;-82
2023/05/20 11:16:01;;;;;;;8.20;4.25;;;;;;;21.85;49.46;94925.91;5003776;28;20180;-83
2023/05/20 11:18:32;;;;;;;13.57;4.30;;;;;;;22.11;48.49;94945.31;4998321;28;20224;-81
2023/05/20 11:21:01;;;;;;;6.05;3.75;;;;;;;21.96;49.00;94926.63;5008401;28;20173;-83
2023/05/20 11:23:27;;;;;;;9.65;5.22;;;;;;;21.91;49.73;94930.13;4990892;28;20676;-80